createdAt,value
2018-12-16T01:04:10.048Z,7.90
2018-12-16T01:09:13.394Z,7.73
2018-12-16T01:14:16.735Z,8.53
2018-12-16T01:19:20.065Z,7.90
2018-12-16T01:24:23.393Z,6.97
2018-12-16T01:29:26.737Z,7.10
2018-12-16T02:31:36.094Z,7.00
2018-12-16T02:36:39.425Z,7.07
2018-12-16T02:41:42.764Z,6.27
2018-12-16T02:46:46.101Z,6.93
2018-12-16T02:51:49.443Z,6.20
2018-12-16T02:56:52.772Z,6.27
2018-12-16T04:05:21.251Z,5.83
2018-12-16T04:10:24.595Z,6.07
2018-12-16T04:15:28.712Z,5.30
2018-12-16T04:20:32.053Z,5.77
2018-12-16T04:25:35.389Z,6.03
2018-12-16T04:30:38.739Z,6.43
2018-12-16T06:04:26.886Z,6.03
2018-12-16T06:09:31.004Z,6.30
2018-12-16T06:14:35.325Z,6.03
2018-12-16T06:19:38.673Z,5.90
2018-12-16T06:24:42.010Z,5.63
2018-12-16T06:29:45.381Z,6.30
2018-12-16T06:34:48.709Z,6.33
2018-12-16T06:39:52.044Z,5.90
2018-12-16T06:44:55.381Z,5.77
2018-12-16T06:49:58.717Z,6.27
2018-12-16T06:55:02.092Z,5.70
2018-12-16T07:00:05.549Z,6.20
2018-12-16T07:05:08.906Z,6.43
2018-12-16T07:10:12.241Z,6.00
2018-12-16T07:15:15.582Z,6.10
2018-12-16T07:20:19.690Z,5.73
2018-12-16T07:25:23.049Z,8.27
2018-12-16T07:30:26.493Z,5.30
2018-12-16T07:35:31.826Z,6.00
2018-12-16T07:40:35.205Z,5.50
2018-12-16T07:45:39.300Z,5.60
2018-12-16T07:50:42.628Z,5.13
2018-12-16T07:55:45.977Z,5.27
2018-12-16T08:00:49.344Z,6.13
2018-12-16T08:05:52.671Z,5.10
2018-12-16T08:10:56.010Z,5.90
2018-12-16T08:15:59.342Z,5.67
2018-12-16T08:21:02.668Z,5.37
2018-12-16T08:26:05.997Z,5.10
2018-12-16T08:31:09.326Z,5.70
2018-12-16T08:36:12.664Z,5.40
2018-12-16T08:41:15.993Z,5.80
2018-12-16T08:46:19.343Z,6.20
2018-12-16T08:51:22.696Z,6.10
2018-12-16T08:56:26.024Z,6.97
2018-12-16T09:01:29.428Z,6.40
2018-12-16T09:06:32.704Z,6.13
2018-12-16T09:11:36.033Z,5.83
2018-12-16T09:16:40.131Z,6.23
2018-12-16T09:21:43.460Z,4.93
2018-12-16T09:26:47.552Z,6.23
2018-12-16T09:31:50.889Z,5.40
2018-12-16T09:37:01.231Z,5.70
2018-12-16T09:42:04.560Z,5.83
2018-12-16T09:47:07.958Z,5.73
2018-12-16T09:52:11.311Z,6.27
2018-12-16T09:57:15.418Z,5.73
2018-12-16T10:02:19.175Z,7.07
2018-12-16T10:07:23.289Z,7.63
2018-12-16T10:12:27.391Z,5.80
2018-12-16T10:17:30.760Z,6.87
2018-12-16T10:22:34.139Z,7.40
2018-12-16T10:27:38.237Z,7.70
2018-12-16T10:32:41.692Z,7.97
2018-12-16T10:37:45.794Z,6.70
2018-12-16T10:42:49.156Z,8.80
2018-12-16T10:47:52.720Z,7.07
2018-12-16T10:52:56.169Z,7.00
2018-12-16T10:57:59.510Z,6.37
2018-12-16T11:03:02.877Z,6.43
2018-12-16T11:08:06.965Z,5.90
2018-12-16T11:13:24.555Z,6.60
2018-12-16T11:18:28.757Z,6.17
2018-12-16T11:23:32.121Z,6.57
2018-12-16T11:28:35.476Z,7.10
2018-12-16T11:33:38.844Z,6.87
2018-12-16T11:38:42.191Z,7.47
2018-12-16T11:43:45.534Z,8.83
2018-12-16T11:48:48.892Z,8.40
2018-12-16T11:53:52.229Z,8.07
2018-12-16T11:58:55.576Z,7.33
2018-12-16T12:03:58.953Z,8.17
2018-12-16T12:09:02.312Z,8.37
2018-12-16T12:14:05.765Z,8.23
2018-12-16T12:19:09.145Z,15.73
2018-12-16T12:24:12.523Z,9.00
2018-12-16T12:29:15.877Z,7.13
2018-12-16T12:34:20.145Z,7.30
2018-12-16T12:39:23.530Z,7.23
2018-12-16T12:44:37.832Z,7.57
2018-12-16T12:49:55.144Z,7.57
2018-12-16T12:55:05.644Z,7.40
2018-12-16T13:00:09.011Z,7.53
2018-12-16T13:05:12.399Z,7.80
2018-12-16T13:10:20.499Z,8.40
2018-12-16T13:15:24.836Z,8.17
2018-12-16T13:20:28.211Z,9.13
2018-12-16T13:25:49.230Z,8.93
2018-12-16T13:30:52.576Z,8.47
2018-12-16T13:35:55.951Z,7.87
2018-12-16T13:40:59.320Z,8.50
2018-12-16T13:46:02.668Z,8.67
2018-12-16T13:51:06.041Z,8.30
2018-12-16T13:56:09.379Z,8.30
2018-12-16T14:01:12.732Z,9.47
2018-12-16T14:06:16.095Z,8.13
2018-12-16T14:11:19.447Z,8.50
2018-12-16T14:16:22.796Z,8.53
2018-12-16T14:21:26.268Z,8.30
2018-12-16T14:26:30.305Z,8.00
2018-12-16T14:31:33.668Z,8.13
2018-12-16T14:36:37.166Z,8.27
2018-12-16T14:41:40.582Z,6.93
2018-12-16T14:46:44.706Z,7.63
2018-12-16T14:51:48.132Z,7.53
2018-12-16T14:56:53.078Z,6.80
2018-12-16T15:01:58.738Z,6.67
2018-12-16T15:07:02.124Z,6.33
2018-12-16T15:12:05.463Z,6.87
2018-12-16T15:17:09.584Z,6.57
2018-12-16T15:22:12.962Z,8.33
2018-12-16T15:27:16.321Z,6.47
2018-12-16T15:32:19.659Z,6.93
2018-12-16T15:37:23.024Z,7.20
2018-12-16T15:42:26.375Z,6.67
2018-12-16T15:47:31.676Z,6.90
2018-12-16T15:52:35.038Z,7.37
2018-12-16T15:57:38.382Z,7.50
2018-12-16T16:02:41.719Z,6.20
2018-12-16T16:07:45.096Z,4.20
2018-12-16T16:12:48.447Z,3.73
2018-12-16T16:17:53.284Z,3.70
2018-12-16T16:22:55.179Z,3.93
2018-12-16T16:27:58.508Z,3.47
2018-12-16T16:33:02.629Z,5.43
2018-12-16T16:38:06.736Z,3.97
2018-12-16T16:43:10.073Z,3.60
2018-12-16T16:48:14.192Z,3.37
2018-12-16T16:53:18.316Z,3.37
2018-12-16T16:58:21.660Z,3.30
2018-12-16T17:03:25.005Z,3.13
2018-12-16T17:08:28.364Z,3.70
2018-12-16T17:13:41.896Z,3.30
2018-12-16T17:18:59.201Z,2.90
2018-12-16T17:24:02.540Z,3.00
2018-12-16T17:29:05.886Z,2.63
2018-12-16T17:34:09.232Z,3.20
2018-12-16T17:39:12.596Z,2.87
2018-12-16T17:44:19.765Z,2.90
2018-12-16T17:49:23.112Z,4.43
2018-12-16T17:54:26.492Z,2.87
2018-12-16T17:59:29.832Z,2.67
2018-12-16T18:04:33.933Z,3.00
2018-12-16T18:09:37.296Z,4.23
2018-12-16T18:14:40.643Z,4.03
2018-12-16T18:19:44.003Z,3.20
2018-12-16T18:24:47.327Z,3.63
2018-12-16T18:29:50.672Z,5.27
2018-12-16T18:34:54.029Z,4.57
2018-12-16T18:39:57.381Z,5.17
2018-12-16T18:45:00.730Z,5.23
2018-12-16T18:50:04.064Z,3.70
2018-12-16T18:55:08.350Z,4.83
2018-12-16T19:00:11.616Z,8.27
2018-12-16T19:05:15.094Z,7.03
2018-12-16T19:10:18.466Z,5.90
2018-12-16T19:15:21.808Z,7.13
2018-12-16T19:20:25.936Z,6.97
2018-12-16T19:25:30.453Z,8.73
2018-12-16T19:30:47.280Z,8.37
2018-12-16T19:35:50.772Z,7.60
2018-12-16T19:40:54.529Z,7.73
2018-12-16T19:45:57.879Z,8.70
2018-12-16T19:51:01.984Z,6.87
2018-12-16T19:56:05.432Z,7.53
2018-12-16T20:01:08.955Z,12.70
2018-12-16T20:11:46.430Z,12.43
2018-12-16T20:16:49.770Z,11.80
2018-12-16T20:21:53.189Z,10.07
2018-12-16T20:26:56.668Z,9.87
2018-12-16T20:32:00.046Z,7.20
2018-12-16T20:37:03.410Z,7.93
2018-12-16T20:42:06.745Z,8.27
2018-12-16T20:47:10.858Z,7.60
2018-12-16T20:52:14.193Z,7.07
2018-12-16T20:57:18.918Z,7.23
2018-12-16T21:02:22.418Z,7.17
2018-12-16T21:07:25.753Z,7.33
2018-12-16T21:12:36.508Z,8.00
2018-12-16T21:17:45.429Z,8.83
2018-12-16T21:22:52.449Z,8.30
2018-12-16T21:27:55.811Z,9.20
2018-12-16T21:32:59.176Z,9.30
2018-12-16T21:38:02.519Z,8.97
2018-12-16T21:43:06.641Z,9.10
2018-12-16T21:48:10.756Z,8.20
2018-12-16T21:53:14.109Z,8.20
2018-12-16T21:58:17.522Z,7.97
2018-12-16T22:03:20.906Z,7.40
2018-12-16T22:08:25.012Z,6.57
2018-12-16T22:13:36.172Z,5.40
2018-12-16T22:18:39.521Z,5.70
2018-12-16T22:23:42.861Z,6.27
2018-12-16T22:28:46.431Z,7.37
2018-12-16T22:33:49.775Z,6.90
2018-12-16T22:38:53.133Z,7.10
2018-12-16T22:43:56.495Z,6.60
2018-12-16T22:48:59.831Z,8.17
2018-12-16T22:54:03.205Z,6.70
2018-12-16T22:59:06.588Z,7.17
2018-12-16T23:35:42.180Z,9.50
2018-12-16T23:40:45.501Z,9.67
2018-12-16T23:45:48.841Z,9.07
2018-12-16T23:50:52.181Z,8.53
2018-12-16T23:55:55.512Z,8.00
